sensor_id;sensor_type;location;lat;lon;timestamp;pressure;altitude;pressure_sealevel;temperature;humidity
11987;BME280;6053;51.382;6.768;2024-02-23T00:00:07;98728.09;;;8.23;69.96
11987;BME280;6053;51.382;6.768;2024-02-23T00:02:39;98729.72;;;9.09;73.88
11987;BME280;6053;51.382;6.768;2024-02-23T00:05:08;98749.03;;;10.47;71.73
11987;BME280;6053;51.382;6.768;2024-02-23T00:07:43;98759.13;;;9.78;70.72
11987;BME280;6053;51.382;6.768;2024-02-23T00:10:11;98756.56;;;11.80;67.82
11987;BME280;6053;51.382;6.768;2024-02-23T00:12:40;98763.97;;;9.69;62.78
11987;BME280;6053;51.382;6.768;2024-02-23T00:15:12;98774.53;;;8.86;75.45
11987;BME280;6053;51.382;6.768;2024-02-23T00:17:42;98774.47;;;9.18;74.82
11987;BME280;6053;51.382;6.768;2024-02-23T00:20:11;98771.19;;;8.17;67.18
11987;BME280;6053;51.382;6.768;2024-02-23T00:22:40;98778.84;;;10.14;74.18
11987;BME280;6053;51.382;6.768;2024-02-23T00:25:14;98788.25;;;8.71;75.74
11987;BME280;6053;51.382;6.768;2024-02-23T00:27:43;98783.78;;;8.41;67.90
11987;BME280;6053;51.382;6.768;2024-02-23T00:30:12;98809.53;;;7.94;70.39
11987;BME280;6053;51.382;6.768;2024-02-23T00:32:42;98810.31;;;7.67;68.51
11987;BME280;6053;51.382;6.768;2024-02-23T00:35:14;98809.81;;;9.95;67.24
11987;BME280;6053;51.382;6.768;2024-02-23T00:37:46;98825.72;;;7.83;73.24
11987;BME280;6053;51.382;6.768;2024-02-23T00:40:15;98837.31;;;8.14;71.57
11987;BME280;6053;51.382;6.768;2024-02-23T00:42:47;98840.63;;;9.09;74.86
11987;BME280;6053;51.382;6.768;2024-02-23T00:45:15;98828.16;;;7.90;71.37
11987;BME280;6053;51.382;6.768;2024-02-23T00:47:45;98836.50;;;8.72;67.91
11987;BME280;6053;51.382;6.768;2024-02-23T00:50:14;98846.16;;;8.36;76.47
11987;BME280;6053;51.382;6.768;2024-02-23T00:52:43;98835.19;;;7.91;74.73
11987;BME280;6053;51.382;6.768;2024-02-23T00:55:11;98842.03;;;8.72;71.97
11987;BME280;6053;51.382;6.768;2024-02-23T00:57:40;98850.84;;;9.41;70.93
11987;BME280;6053;51.382;6.768;2024-02-23T01:00:09;98851.81;;;9.76;72.68
11987;BME280;6053;51.382;6.768;2024-02-23T01:02:38;98838.28;;;8.93;74.30
11987;BME280;6053;51.382;6.768;2024-02-23T01:05:15;98860.03;;;7.25;75.68
11987;BME280;6053;51.382;6.768;2024-02-23T01:07:43;98859.59;;;10.00;73.25
11987;BME280;6053;51.382;6.768;2024-02-23T01:10:18;98859.63;;;9.30;66.41
11987;BME280;6053;51.382;6.768;2024-02-23T01:12:50;98867.41;;;7.99;73.06
11987;BME280;6053;51.382;6.768;2024-02-23T01:15:21;98860.94;;;9.44;74.66
11987;BME280;6053;51.382;6.768;2024-02-23T01:17:49;98867.13;;;10.29;69.02
11987;BME280;6053;51.382;6.768;2024-02-23T01:20:19;98867.31;;;10.11;62.79
11987;BME280;6053;51.382;6.768;2024-02-23T01:23:03;98869.84;;;9.62;68.02
11987;BME280;6053;51.382;6.768;2024-02-23T01:25:37;98871.69;;;11.24;67.51
11987;BME280;6053;51.382;6.768;2024-02-23T01:28:06;98880.66;;;10.27;65.03
11987;BME280;6053;51.382;6.768;2024-02-23T01:30:37;98883.69;;;11.75;63.46
11987;BME280;6053;51.382;6.768;2024-02-23T01:33:06;98898.13;;;11.30;60.84
11987;BME280;6053;51.382;6.768;2024-02-23T01:35:36;98890.84;;;10.78;66.56
11987;BME280;6053;51.382;6.768;2024-02-23T01:38:05;98890.13;;;8.86;73.13
11987;BME280;6053;51.382;6.768;2024-02-23T01:40:33;98889.75;;;9.11;68.00
11987;BME280;6053;51.382;6.768;2024-02-23T01:43:03;98893.22;;;10.28;70.88
11987;BME280;6053;51.382;6.768;2024-02-23T01:45:32;98898.84;;;9.49;67.83
11987;BME280;6053;51.382;6.768;2024-02-23T01:48:01;98889.22;;;8.89;65.22
11987;BME280;6053;51.382;6.768;2024-02-23T01:50:30;98890.31;;;8.82;70.77
11987;BME280;6053;51.382;6.768;2024-02-23T01:53:03;98898.56;;;8.82;73.21
11987;BME280;6053;51.382;6.768;2024-02-23T01:55:32;98898.16;;;9.39;67.02
11987;BME280;6053;51.382;6.768;2024-02-23T01:58:04;98905.56;;;8.33;73.29
11987;BME280;6053;51.382;6.768;2024-02-23T02:00:35;98907.44;;;8.86;62.76
11987;BME280;6053;51.382;6.768;2024-02-23T02:03:07;98914.09;;;7.55;66.69
11987;BME280;6053;51.382;6.768;2024-02-23T02:05:39;98907.66;;;8.65;69.00
11987;BME280;6053;51.382;6.768;2024-02-23T02:08:10;98927.22;;;7.59;74.97
11987;BME280;6053;51.382;6.768;2024-02-23T02:10:41;98915.19;;;7.93;66.54
11987;BME280;6053;51.382;6.768;2024-02-23T02:13:11;98918.41;;;9.27;70.61
11987;BME280;6053;51.382;6.768;2024-02-23T02:15:43;98920.41;;;8.27;71.89
11987;BME280;6053;51.382;6.768;2024-02-23T02:18:11;98922.53;;;7.96;64.50
11987;BME280;6053;51.382;6.768;2024-02-23T02:20:52;98930.25;;;7.53;68.12
11987;BME280;6053;51.382;6.768;2024-02-23T02:23:23;98934.75;;;8.31;72.04
11987;BME280;6053;51.382;6.768;2024-02-23T02:26:03;98935.78;;;8.60;69.68
11987;BME280;6053;51.382;6.768;2024-02-23T02:28:35;98936.81;;;9.77;69.42
11987;BME280;6053;51.382;6.768;2024-02-23T02:31:03;98942.59;;;8.91;68.76
11987;BME280;6053;51.382;6.768;2024-02-23T02:33:34;98927.50;;;9.42;63.19
11987;BME280;6053;51.382;6.768;2024-02-23T02:36:06;98940.81;;;7.54;70.77
11987;BME280;6053;51.382;6.768;2024-02-23T02:38:36;98927.22;;;8.67;65.16
11987;BME280;6053;51.382;6.768;2024-02-23T02:41:04;98950.19;;;6.96;67.76
11987;BME280;6053;51.382;6.768;2024-02-23T02:43:36;98941.88;;;7.57;67.07
11987;BME280;6053;51.382;6.768;2024-02-23T02:46:14;98935.22;;;7.18;72.64
11987;BME280;6053;51.382;6.768;2024-02-23T02:48:42;98931.84;;;8.07;71.44
11987;BME280;6053;51.382;6.768;2024-02-23T02:51:19;98952.63;;;7.24;67.31
11987;BME280;6053;51.382;6.768;2024-02-23T02:53:51;98952.06;;;7.56;72.95
11987;BME280;6053;51.382;6.768;2024-02-23T02:56:20;98944.94;;;7.76;65.92
11987;BME280;6053;51.382;6.768;2024-02-23T02:58:51;98956.41;;;6.87;69.24
11987;BME280;6053;51.382;6.768;2024-02-23T03:01:19;98955.25;;;7.46;70.88
11987;BME280;6053;51.382;6.768;2024-02-23T03:03:51;98952.31;;;9.01;69.53
11987;BME280;6053;51.382;6.768;2024-02-23T03:06:19;98957.13;;;7.57;64.27
11987;BME280;6053;51.382;6.768;2024-02-23T03:08:52;98954.75;;;7.95;64.09
11987;BME280;6053;51.382;6.768;2024-02-23T03:11:20;98958.22;;;7.69;71.25
11987;BME280;6053;51.382;6.768;2024-02-23T03:13:49;98961.63;;;6.64;66.39
11987;BME280;6053;51.382;6.768;2024-02-23T03:16:18;98968.16;;;7.84;75.09
11987;BME280;6053;51.382;6.768;2024-02-23T03:18:46;98961.25;;;7.71;66.79
11987;BME280;6053;51.382;6.768;2024-02-23T03:21:23;98979.03;;;8.68;73.16
11987;BME280;6053;51.382;6.768;2024-02-23T03:23:53;98973.38;;;7.91;64.49
11987;BME280;6053;51.382;6.768;2024-02-23T03:26:24;98978.34;;;7.18;66.97
11987;BME280;6053;51.382;6.768;2024-02-23T03:28:52;98980.19;;;7.60;69.37
11987;BME280;6053;51.382;6.768;2024-02-23T03:31:21;98978.91;;;8.36;64.14
11987;BME280;6053;51.382;6.768;2024-02-23T03:33:49;98979.56;;;7.65;74.28
11987;BME280;6053;51.382;6.768;2024-02-23T03:36:20;98977.94;;;7.28;69.36
11987;BME280;6053;51.382;6.768;2024-02-23T03:38:48;98986.06;;;7.41;67.32
11987;BME280;6053;51.382;6.768;2024-02-23T03:41:25;98990.34;;;7.99;68.76
11987;BME280;6053;51.382;6.768;2024-02-23T03:43:54;98988.66;;;8.73;65.51
11987;BME280;6053;51.382;6.768;2024-02-23T03:46:23;98990.31;;;7.90;63.83
11987;BME280;6053;51.382;6.768;2024-02-23T03:48:54;98992.94;;;8.56;70.93
11987;BME280;6053;51.382;6.768;2024-02-23T03:51:25;98999.69;;;8.46;67.60
11987;BME280;6053;51.382;6.768;2024-02-23T03:53:53;98994.16;;;8.64;68.74
11987;BME280;6053;51.382;6.768;2024-02-23T03:56:27;98993.25;;;8.13;66.28
11987;BME280;6053;51.382;6.768;2024-02-23T03:59:01;98990.09;;;9.10;60.40
11987;BME280;6053;51.382;6.768;2024-02-23T04:01:35;98997.81;;;8.70;65.97
11987;BME280;6053;51.382;6.768;2024-02-23T04:04:05;99001.13;;;10.59;65.71
11987;BME280;6053;51.382;6.768;2024-02-23T04:06:40;99004.91;;;9.53;57.87
11987;BME280;6053;51.382;6.768;2024-02-23T04:09:15;98999.72;;;10.25;60.27
11987;BME280;6053;51.382;6.768;2024-02-23T04:11:51;99001.75;;;8.96;68.07
11987;BME280;6053;51.382;6.768;2024-02-23T04:14:23;99003.66;;;8.45;60.64
11987;BME280;6053;51.382;6.768;2024-02-23T04:16:51;99015.38;;;8.81;60.43
11987;BME280;6053;51.382;6.768;2024-02-23T04:19:25;99008.22;;;9.34;68.34
11987;BME280;6053;51.382;6.768;2024-02-23T04:21:59;99019.66;;;8.82;69.90
11987;BME280;6053;51.382;6.768;2024-02-23T04:24:27;99012.47;;;8.94;70.41
11987;BME280;6053;51.382;6.768;2024-02-23T04:26:57;99011.72;;;8.93;65.75
11987;BME280;6053;51.382;6.768;2024-02-23T04:29:25;99008.06;;;10.54;63.71
11987;BME280;6053;51.382;6.768;2024-02-23T04:31:57;99004.03;;;10.03;66.16
11987;BME280;6053;51.382;6.768;2024-02-23T04:34:25;99011.25;;;10.00;65.75
11987;BME280;6053;51.382;6.768;2024-02-23T04:36:56;99012.63;;;9.73;65.11
11987;BME280;6053;51.382;6.768;2024-02-23T04:39:24;99019.16;;;9.52;66.35
11987;BME280;6053;51.382;6.768;2024-02-23T04:42:00;99016.81;;;9.27;63.05
11987;BME280;6053;51.382;6.768;2024-02-23T04:44:34;99021.72;;;10.20;59.46
11987;BME280;6053;51.382;6.768;2024-02-23T04:47:03;99031.97;;;9.64;63.32
11987;BME280;6053;51.382;6.768;2024-02-23T04:49:31;99041.56;;;9.77;67.50
11987;BME280;6053;51.382;6.768;2024-02-23T04:52:14;99043.63;;;9.59;64.47
11987;BME280;6053;51.382;6.768;2024-02-23T04:54:43;99040.22;;;9.31;62.38
11987;BME280;6053;51.382;6.768;2024-02-23T04:57:20;99049.63;;;10.36;58.51
11987;BME280;6053;51.382;6.768;2024-02-23T04:59:49;99053.66;;;9.38;64.17
11987;BME280;6053;51.382;6.768;2024-02-23T05:02:19;99047.06;;;9.77;60.69
11987;BME280;6053;51.382;6.768;2024-02-23T05:04:48;99047.81;;;8.50;66.46
11987;BME280;6053;51.382;6.768;2024-02-23T05:07:18;99052.25;;;8.75;65.76
11987;BME280;6053;51.382;6.768;2024-02-23T05:09:47;99056.09;;;9.36;63.89
11987;BME280;6053;51.382;6.768;2024-02-23T05:12:16;99067.47;;;9.20;63.23
11987;BME280;6053;51.382;6.768;2024-02-23T05:14:45;99062.97;;;8.37;66.63
11987;BME280;6053;51.382;6.768;2024-02-23T05:17:19;99052.78;;;9.65;58.71
11987;BME280;6053;51.382;6.768;2024-02-23T05:19:47;99059.72;;;9.51;67.58
11987;BME280;6053;51.382;6.768;2024-02-23T05:22:22;99061.38;;;8.99;68.79
11987;BME280;6053;51.382;6.768;2024-02-23T05:24:53;99052.47;;;9.21;67.44
11987;BME280;6053;51.382;6.768;2024-02-23T05:27:23;99058.69;;;8.72;61.21
11987;BME280;6053;51.382;6.768;2024-02-23T05:29:51;99062.09;;;9.26;62.21
11987;BME280;6053;51.382;6.768;2024-02-23T05:32:19;99066.16;;;8.89;60.67
11987;BME280;6053;51.382;6.768;2024-02-23T05:34:51;99064.59;;;9.56;64.46
11987;BME280;6053;51.382;6.768;2024-02-23T05:37:26;99066.88;;;9.16;65.19
11987;BME280;6053;51.382;6.768;2024-02-23T05:39:58;99062.25;;;10.05;66.85
11987;BME280;6053;51.382;6.768;2024-02-23T05:42:28;99056.66;;;9.49;65.73
11987;BME280;6053;51.382;6.768;2024-02-23T05:44:57;99062.25;;;9.31;66.65
11987;BME280;6053;51.382;6.768;2024-02-23T05:47:25;99068.47;;;8.37;62.22
11987;BME280;6053;51.382;6.768;2024-02-23T05:50:01;99060.97;;;8.82;69.65
11987;BME280;6053;51.382;6.768;2024-02-23T05:52:31;99066.56;;;8.07;63.36
11987;BME280;6053;51.382;6.768;2024-02-23T05:55:06;99059.75;;;8.21;65.20
11987;BME280;6053;51.382;6.768;2024-02-23T05:57:45;99059.44;;;8.63;62.72
11987;BME280;6053;51.382;6.768;2024-02-23T06:00:17;99073.97;;;8.46;64.30
11987;BME280;6053;51.382;6.768;2024-02-23T06:02:46;99064.03;;;8.48;63.11
11987;BME280;6053;51.382;6.768;2024-02-23T06:05:15;99071.06;;;8.67;65.26
11987;BME280;6053;51.382;6.768;2024-02-23T06:07:43;99073.97;;;8.46;62.25
11987;BME280;6053;51.382;6.768;2024-02-23T06:10:17;99070.28;;;8.31;63.37
11987;BME280;6053;51.382;6.768;2024-02-23T06:12:50;99069.50;;;8.31;64.69
11987;BME280;6053;51.382;6.768;2024-02-23T06:15:22;99069.97;;;8.92;68.53
11987;BME280;6053;51.382;6.768;2024-02-23T06:17:53;99068.63;;;8.60;66.32
11987;BME280;6053;51.382;6.768;2024-02-23T06:20:21;99054.94;;;9.61;65.69
11987;BME280;6053;51.382;6.768;2024-02-23T06:22:50;99063.88;;;8.88;63.87
11987;BME280;6053;51.382;6.768;2024-02-23T06:25:18;99058.38;;;8.52;65.15
11987;BME280;6053;51.382;6.768;2024-02-23T06:27:51;99059.91;;;8.71;67.64
11987;BME280;6053;51.382;6.768;2024-02-23T06:30:22;99062.97;;;8.73;62.40
11987;BME280;6053;51.382;6.768;2024-02-23T06:32:50;99058.53;;;10.08;66.41
11987;BME280;6053;51.382;6.768;2024-02-23T06:35:31;99056.66;;;10.14;65.03
11987;BME280;6053;51.382;6.768;2024-02-23T06:38:03;99060.50;;;8.30;59.22
11987;BME280;6053;51.382;6.768;2024-02-23T06:40:44;99056.53;;;8.22;64.63
11987;BME280;6053;51.382;6.768;2024-02-23T06:43:20;99046.75;;;8.57;62.61
11987;BME280;6053;51.382;6.768;2024-02-23T06:45:49;99038.34;;;8.78;66.48
11987;BME280;6053;51.382;6.768;2024-02-23T06:48:49;99035.59;;;8.25;59.36
11987;BME280;6053;51.382;6.768;2024-02-23T06:51:17;99049.78;;;8.32;65.98
11987;BME280;6053;51.382;6.768;2024-02-23T06:53:50;99040.47;;;8.30;61.79
11987;BME280;6053;51.382;6.768;2024-02-23T06:56:21;99036.19;;;8.91;64.21
11987;BME280;6053;51.382;6.768;2024-02-23T06:58:51;99040.53;;;7.90;60.77
11987;BME280;6053;51.382;6.768;2024-02-23T07:01:22;99036.63;;;8.09;60.97
11987;BME280;6053;51.382;6.768;2024-02-23T07:03:51;99037.28;;;8.49;66.38
11987;BME280;6053;51.382;6.768;2024-02-23T07:06:19;99036.50;;;8.22;62.55
11987;BME280;6053;51.382;6.768;2024-02-23T07:08:50;99040.94;;;8.73;61.26
11987;BME280;6053;51.382;6.768;2024-02-23T07:11:18;99036.91;;;9.01;68.46
11987;BME280;6053;51.382;6.768;2024-02-23T07:13:51;99041.38;;;8.80;63.79
11987;BME280;6053;51.382;6.768;2024-02-23T07:16:20;99036.25;;;9.23;62.93
11987;BME280;6053;51.382;6.768;2024-02-23T07:18:48;99046.59;;;8.34;63.73
11987;BME280;6053;51.382;6.768;2024-02-23T07:21:18;99033.41;;;9.00;65.88
11987;BME280;6053;51.382;6.768;2024-02-23T07:23:46;99034.97;;;8.30;63.02
11987;BME280;6053;51.382;6.768;2024-02-23T07:26:14;99036.34;;;8.88;67.47
11987;BME280;6053;51.382;6.768;2024-02-23T07:28:49;99030.19;;;8.03;61.76
11987;BME280;6053;51.382;6.768;2024-02-23T07:31:18;99032.38;;;8.71;63.86
11987;BME280;6053;51.382;6.768;2024-02-23T07:33:50;99037.13;;;8.17;61.19
11987;BME280;6053;51.382;6.768;2024-02-23T07:36:25;99049.19;;;8.19;65.91
11987;BME280;6053;51.382;6.768;2024-02-23T07:38:55;99040.47;;;8.92;63.40
11987;BME280;6053;51.382;6.768;2024-02-23T07:41:23;99041.63;;;9.59;59.94
11987;BME280;6053;51.382;6.768;2024-02-23T07:43:55;99039.44;;;8.45;60.00
11987;BME280;6053;51.382;6.768;2024-02-23T07:46:25;99051.00;;;8.76;63.65
11987;BME280;6053;51.382;6.768;2024-02-23T07:48:58;99058.38;;;8.34;61.95
11987;BME280;6053;51.382;6.768;2024-02-23T07:51:29;99061.28;;;8.84;64.45
11987;BME280;6053;51.382;6.768;2024-02-23T07:53:57;99054.84;;;8.34;60.67
11987;BME280;6053;51.382;6.768;2024-02-23T07:56:25;99060.53;;;8.39;60.89
11987;BME280;6053;51.382;6.768;2024-02-23T07:59:00;99055.28;;;8.86;60.74
11987;BME280;6053;51.382;6.768;2024-02-23T08:01:31;99059.00;;;8.74;67.21
11987;BME280;6053;51.382;6.768;2024-02-23T08:04:11;99044.91;;;8.72;61.60
11987;BME280;6053;51.382;6.768;2024-02-23T08:06:43;99048.56;;;8.69;68.54
11987;BME280;6053;51.382;6.768;2024-02-23T08:09:14;99048.09;;;8.88;61.59
11987;BME280;6053;51.382;6.768;2024-02-23T08:11:46;99045.81;;;8.96;59.69
11987;BME280;6053;51.382;6.768;2024-02-23T08:14:15;99049.19;;;8.28;61.24
11987;BME280;6053;51.382;6.768;2024-02-23T08:16:44;99049.78;;;8.95;64.29
11987;BME280;6053;51.382;6.768;2024-02-23T08:19:19;99042.00;;;8.66;65.24
11987;BME280;6053;51.382;6.768;2024-02-23T08:21:47;99041.25;;;8.66;67.10
11987;BME280;6053;51.382;6.768;2024-02-23T08:24:18;99038.63;;;8.89;61.47
11987;BME280;6053;51.382;6.768;2024-02-23T08:26:49;99049.47;;;8.93;65.38
11987;BME280;6053;51.382;6.768;2024-02-23T08:29:21;99035.91;;;8.62;60.93
11987;BME280;6053;51.382;6.768;2024-02-23T08:31:50;99051.78;;;8.32;65.59
11987;BME280;6053;51.382;6.768;2024-02-23T08:34:19;99046.16;;;8.53;62.00
11987;BME280;6053;51.382;6.768;2024-02-23T08:36:47;99042.63;;;8.43;61.07
11987;BME280;6053;51.382;6.768;2024-02-23T08:39:15;99038.53;;;8.39;60.69
11987;BME280;6053;51.382;6.768;2024-02-23T08:41:44;99047.19;;;8.29;62.12
11987;BME280;6053;51.382;6.768;2024-02-23T08:44:18;99055.03;;;8.39;60.91
11987;BME280;6053;51.382;6.768;2024-02-23T08:46:47;99053.63;;;8.79;62.26
11987;BME280;6053;51.382;6.768;2024-02-23T08:49:23;99057.56;;;9.14;58.68
11987;BME280;6053;51.382;6.768;2024-02-23T08:51:51;99054.41;;;7.78;61.31
11987;BME280;6053;51.382;6.768;2024-02-23T08:54:20;99054.13;;;7.94;61.29
11987;BME280;6053;51.382;6.768;2024-02-23T08:56:51;99055.91;;;8.81;63.36
11987;BME280;6053;51.382;6.768;2024-02-23T08:59:22;99054.84;;;9.46;62.10
11987;BME280;6053;51.382;6.768;2024-02-23T09:01:51;99061.28;;;9.43;60.09
11987;BME280;6053;51.382;6.768;2024-02-23T09:04:28;99052.56;;;8.59;61.25
11987;BME280;6053;51.382;6.768;2024-02-23T09:07:02;99055.31;;;8.59;64.78
11987;BME280;6053;51.382;6.768;2024-02-23T09:09:36;99059.13;;;8.88;60.90
11987;BME280;6053;51.382;6.768;2024-02-23T09:12:08;99064.44;;;9.01;63.57
11987;BME280;6053;51.382;6.768;2024-02-23T09:14:38;99072.09;;;9.06;58.36
11987;BME280;6053;51.382;6.768;2024-02-23T09:17:08;99071.34;;;8.51;58.87
11987;BME280;6053;51.382;6.768;2024-02-23T09:19:39;99068.09;;;9.15;59.68
11987;BME280;6053;51.382;6.768;2024-02-23T09:22:11;99064.34;;;8.59;62.10
11987;BME280;6053;51.382;6.768;2024-02-23T09:24:42;99059.25;;;9.03;58.07
11987;BME280;6053;51.382;6.768;2024-02-23T09:27:13;99056.50;;;8.85;62.51
11987;BME280;6053;51.382;6.768;2024-02-23T09:29:45;99063.50;;;9.12;60.09
11987;BME280;6053;51.382;6.768;2024-02-23T09:32:19;99061.59;;;8.86;59.68
11987;BME280;6053;51.382;6.768;2024-02-23T09:34:49;99072.13;;;8.97;61.27
11987;BME280;6053;51.382;6.768;2024-02-23T09:37:21;99071.06;;;8.58;58.69
11987;BME280;6053;51.382;6.768;2024-02-23T09:39:52;99079.59;;;8.87;59.32
11987;BME280;6053;51.382;6.768;2024-02-23T09:42:22;99085.13;;;8.60;60.01
11987;BME280;6053;51.382;6.768;2024-02-23T09:44:58;99082.22;;;8.46;59.94
11987;BME280;6053;51.382;6.768;2024-02-23T09:47:27;99078.88;;;8.60;62.03
11987;BME280;6053;51.382;6.768;2024-02-23T09:49:59;99066.34;;;8.68;58.39
11987;BME280;6053;51.382;6.768;2024-02-23T09:52:33;99072.31;;;8.57;61.08
11987;BME280;6053;51.382;6.768;2024-02-23T09:55:08;99080.34;;;9.14;64.43
11987;BME280;6053;51.382;6.768;2024-02-23T09:57:40;99073.50;;;8.92;60.50
11987;BME280;6053;51.382;6.768;2024-02-23T10:00:13;99068.47;;;8.73;56.71
11987;BME280;6053;51.382;6.768;2024-02-23T10:02:44;99071.97;;;8.46;58.91
11987;BME280;6053;51.382;6.768;2024-02-23T10:05:20;99075.03;;;8.84;58.73
11987;BME280;6053;51.382;6.768;2024-02-23T10:07:51;99071.03;;;9.03;59.36
11987;BME280;6053;51.382;6.768;2024-02-23T10:10:25;99075.09;;;9.76;56.80
11987;BME280;6053;51.382;6.768;2024-02-23T10:13:05;99063.25;;;9.52;58.69
11987;BME280;6053;51.382;6.768;2024-02-23T10:15:33;99056.78;;;9.55;55.82
11987;BME280;6053;51.382;6.768;2024-02-23T10:18:01;99066.13;;;9.07;55.32
11987;BME280;6053;51.382;6.768;2024-02-23T10:20:31;99064.53;;;9.33;56.20
11987;BME280;6053;51.382;6.768;2024-02-23T10:23:03;99076.56;;;9.53;57.23
11987;BME280;6053;51.382;6.768;2024-02-23T10:25:33;99073.78;;;9.94;57.91
11987;BME280;6053;51.382;6.768;2024-02-23T10:28:06;99076.03;;;9.31;56.21
11987;BME280;6053;51.382;6.768;2024-02-23T10:30:37;99072.53;;;9.13;55.48
11987;BME280;6053;51.382;6.768;2024-02-23T10:33:13;99076.53;;;9.62;62.25
11987;BME280;6053;51.382;6.768;2024-02-23T10:35:46;99069.53;;;9.52;57.59
11987;BME280;6053;51.382;6.768;2024-02-23T10:38:17;99064.44;;;9.18;56.19
11987;BME280;6053;51.382;6.768;2024-02-23T10:40:47;99063.56;;;8.59;56.07
11987;BME280;6053;51.382;6.768;2024-02-23T10:43:30;99071.22;;;8.82;59.29
11987;BME280;6053;51.382;6.768;2024-02-23T10:46:04;99077.50;;;9.83;58.78
11987;BME280;6053;51.382;6.768;2024-02-23T10:48:38;99090.16;;;9.66;62.01
11987;BME280;6053;51.382;6.768;2024-02-23T10:51:13;99079.97;;;9.39;61.53
11987;BME280;6053;51.382;6.768;2024-02-23T10:53:48;99087.94;;;9.79;59.45
11987;BME280;6053;51.382;6.768;2024-02-23T10:56:17;99086.47;;;9.60;58.11
11987;BME280;6053;51.382;6.768;2024-02-23T10:58:46;99100.56;;;9.12;57.78
11987;BME280;6053;51.382;6.768;2024-02-23T11:01:18;99084.50;;;9.60;56.71
11987;BME280;6053;51.382;6.768;2024-02-23T11:03:48;99089.31;;;9.33;55.28
11987;BME280;6053;51.382;6.768;2024-02-23T11:06:19;99089.44;;;9.47;55.83
11987;BME280;6053;51.382;6.768;2024-02-23T11:08:49;99109.78;;;9.50;57.27
11987;BME280;6053;51.382;6.768;2024-02-23T11:11:18;99101.41;;;9.35;56.46
11987;BME280;6053;51.382;6.768;2024-02-23T11:13:49;99094.91;;;8.97;55.37
11987;BME280;6053;51.382;6.768;2024-02-23T11:16:26;99094.97;;;9.38;55.45
11987;BME280;6053;51.382;6.768;2024-02-23T11:19:04;99090.25;;;9.71;62.98
11987;BME280;6053;51.382;6.768;2024-02-23T11:21:52;99098.78;;;9.41;55.37
11987;BME280;6053;51.382;6.768;2024-02-23T11:24:27;99095.97;;;8.91;58.55
11987;BME280;6053;51.382;6.768;2024-02-23T11:27:03;99087.06;;;9.73;63.22
11987;BME280;6053;51.382;6.768;2024-02-23T11:29:37;99083.44;;;9.58;57.04
11987;BME280;6053;51.382;6.768;2024-02-23T11:32:14;99097.41;;;9.45;56.85
11987;BME280;6053;51.382;6.768;2024-02-23T11:34:54;99090.72;;;9.28;55.17
11987;BME280;6053;51.382;6.768;2024-02-23T11:37:28;99092.97;;;9.80;56.95
11987;BME280;6053;51.382;6.768;2024-02-23T11:40:01;99091.56;;;9.52;57.59
11987;BME280;6053;51.382;6.768;2024-02-23T11:42:31;99085.00;;;9.50;60.36
11987;BME280;6053;51.382;6.768;2024-02-23T11:45:03;99095.78;;;9.21;57.58
11987;BME280;6053;51.382;6.768;2024-02-23T11:47:41;99090.94;;;8.89;55.74
11987;BME280;6053;51.382;6.768;2024-02-23T11:50:14;99088.59;;;9.74;58.44
11987;BME280;6053;51.382;6.768;2024-02-23T11:52:44;99092.47;;;9.58;57.98
11987;BME280;6053;51.382;6.768;2024-02-23T11:55:19;99095.59;;;9.33;57.51
11987;BME280;6053;51.382;6.768;2024-02-23T11:57:50;99099.25;;;9.39;59.45
11987;BME280;6053;51.382;6.768;2024-02-23T12:00:31;99100.03;;;9.81;58.57
11987;BME280;6053;51.382;6.768;2024-02-23T12:03:03;99095.31;;;9.73;56.54
11987;BME280;6053;51.382;6.768;2024-02-23T12:05:32;99081.41;;;9.67;55.07
11987;BME280;6053;51.382;6.768;2024-02-23T12:08:07;99080.22;;;10.00;57.10
11987;BME280;6053;51.382;6.768;2024-02-23T12:10:36;99086.78;;;10.03;56.18
11987;BME280;6053;51.382;6.768;2024-02-23T12:13:05;99081.19;;;9.38;57.71
11987;BME280;6053;51.382;6.768;2024-02-23T12:15:37;99084.06;;;9.85;56.54
11987;BME280;6053;51.382;6.768;2024-02-23T12:18:06;99076.91;;;9.46;56.61
11987;BME280;6053;51.382;6.768;2024-02-23T12:20:37;99080.94;;;9.69;62.26
11987;BME280;6053;51.382;6.768;2024-02-23T12:23:11;99075.66;;;10.59;56.24
11987;BME280;6053;51.382;6.768;2024-02-23T12:25:58;99069.66;;;9.90;56.36
11987;BME280;6053;51.382;6.768;2024-02-23T12:28:28;99080.78;;;9.63;55.32
11987;BME280;6053;51.382;6.768;2024-02-23T12:31:06;99079.66;;;10.58;62.00
11987;BME280;6053;51.382;6.768;2024-02-23T12:33:37;99071.59;;;11.06;61.61
11987;BME280;6053;51.382;6.768;2024-02-23T12:36:18;99084.44;;;10.34;56.51
11987;BME280;6053;51.382;6.768;2024-02-23T12:39:02;99095.78;;;9.21;56.72
11987;BME280;6053;51.382;6.768;2024-02-23T12:41:39;99094.50;;;9.81;59.72
11987;BME280;6053;51.382;6.768;2024-02-23T12:44:17;99082.66;;;9.57;57.39
11987;BME280;6053;51.382;6.768;2024-02-23T12:46:46;99096.66;;;10.42;59.67
11987;BME280;6053;51.382;6.768;2024-02-23T12:49:14;99091.34;;;10.53;54.13
11987;BME280;6053;51.382;6.768;2024-02-23T12:51:52;99084.56;;;10.16;60.75
11987;BME280;6053;51.382;6.768;2024-02-23T12:54:22;99089.41;;;9.97;54.89
11987;BME280;6053;51.382;6.768;2024-02-23T12:56:50;99092.78;;;10.25;55.91
11987;BME280;6053;51.382;6.768;2024-02-23T12:59:19;99084.19;;;9.99;53.26
11987;BME280;6053;51.382;6.768;2024-02-23T13:01:53;99088.97;;;9.90;56.94
11987;BME280;6053;51.382;6.768;2024-02-23T13:04:28;99096.53;;;10.13;55.77
11987;BME280;6053;51.382;6.768;2024-02-23T13:07:00;99105.75;;;9.69;55.53
11987;BME280;6053;51.382;6.768;2024-02-23T13:09:30;99096.75;;;9.59;57.03
11987;BME280;6053;51.382;6.768;2024-02-23T13:11:59;99096.41;;;9.66;56.05
11987;BME280;6053;51.382;6.768;2024-02-23T13:14:27;99095.22;;;9.99;62.09
11987;BME280;6053;51.382;6.768;2024-02-23T13:17:02;99097.97;;;9.99;55.04
11987;BME280;6053;51.382;6.768;2024-02-23T13:19:33;99094.56;;;10.74;59.36
11987;BME280;6053;51.382;6.768;2024-02-23T13:22:05;99109.22;;;10.43;57.78
11987;BME280;6053;51.382;6.768;2024-02-23T13:24:35;99106.72;;;9.89;56.46
11987;BME280;6053;51.382;6.768;2024-02-23T13:27:05;99109.53;;;9.80;58.22
11987;BME280;6053;51.382;6.768;2024-02-23T13:29:37;99106.03;;;10.35;54.78
11987;BME280;6053;51.382;6.768;2024-02-23T13:32:06;99104.91;;;10.18;56.73
11987;BME280;6053;51.382;6.768;2024-02-23T13:34:38;99101.22;;;9.98;55.49
11987;BME280;6053;51.382;6.768;2024-02-23T13:37:06;99112.78;;;10.34;53.71
11987;BME280;6053;51.382;6.768;2024-02-23T13:39:46;99106.03;;;10.12;59.54
11987;BME280;6053;51.382;6.768;2024-02-23T13:42:21;99098.28;;;10.01;55.68